createdAt,value
2019-05-09T00:00:15.050Z,15.50
2019-05-09T00:02:47.609Z,16.00
2019-05-09T00:05:22.729Z,15.10
2019-05-09T00:07:54.413Z,17.83
2019-05-09T00:10:38.499Z,16.53
2019-05-09T00:13:03.352Z,13.20
2019-05-09T00:15:35.585Z,18.10
2019-05-09T00:18:08.120Z,14.80
2019-05-09T00:20:43.610Z,17.73
2019-05-09T00:23:16.415Z,16.70
2019-05-09T00:25:50.195Z,16.07
2019-05-09T00:28:23.637Z,17.77
2019-05-09T00:30:58.145Z,18.93
2019-05-09T00:33:34.306Z,19.17
2019-05-09T00:36:06.901Z,19.80
2019-05-09T00:38:46.324Z,14.00
2019-05-09T00:41:19.110Z,16.53
2019-05-09T00:43:54.330Z,17.23
2019-05-09T00:46:43.119Z,14.87
2019-05-09T00:49:17.064Z,16.27
2019-05-09T00:51:49.786Z,15.57
2019-05-09T00:54:24.033Z,16.27
2019-05-09T00:56:56.760Z,20.07
2019-05-09T00:59:29.445Z,21.90
2019-05-09T01:02:03.932Z,14.13
2019-05-09T01:04:36.179Z,14.73
2019-05-09T01:07:08.935Z,16.03
2019-05-09T01:09:43.857Z,18.33
2019-05-09T01:12:15.896Z,20.13
2019-05-09T01:14:48.611Z,14.07
2019-05-09T01:17:23.900Z,18.67
2019-05-09T01:19:55.865Z,18.23
2019-05-09T01:22:29.935Z,16.17
2019-05-09T01:25:04.192Z,16.63
2019-05-09T01:27:37.020Z,20.63
2019-05-09T01:30:13.162Z,15.60
2019-05-09T01:33:03.619Z,16.27
2019-05-09T01:35:36.485Z,14.77
2019-05-09T01:38:10.470Z,15.50
2019-05-09T01:40:43.856Z,16.30
2019-05-09T01:43:16.709Z,21.20
2019-05-09T01:45:49.380Z,14.80
2019-05-09T01:48:23.418Z,15.53
2019-05-09T01:50:56.246Z,21.33
2019-05-09T01:53:30.549Z,20.00
2019-05-09T01:56:03.901Z,17.60
2019-05-09T01:58:36.502Z,16.97
2019-05-09T02:01:09.970Z,17.97
2019-05-09T02:03:44.300Z,14.93
2019-05-09T02:06:17.111Z,18.27
2019-05-09T02:08:50.210Z,17.87
2019-05-09T02:11:23.890Z,20.03
2019-05-09T02:13:57.005Z,22.90
2019-05-09T02:16:38.281Z,20.57
2019-05-09T02:19:15.395Z,20.43
2019-05-09T02:21:48.040Z,21.27
2019-05-09T02:24:23.189Z,16.53
2019-05-09T02:26:55.194Z,21.27
2019-05-09T02:29:27.975Z,20.77
2019-05-09T02:32:04.215Z,21.40
2019-05-09T02:34:35.816Z,18.03
2019-05-09T02:37:09.271Z,19.87
2019-05-09T02:39:42.078Z,21.67
2019-05-09T02:42:15.041Z,21.70
2019-05-09T02:44:49.310Z,20.50
2019-05-09T02:47:23.556Z,17.10
2019-05-09T02:49:58.976Z,17.87
2019-05-09T02:52:30.425Z,24.20
2019-05-09T02:55:03.307Z,17.07
2019-05-09T02:57:37.516Z,24.53
2019-05-09T03:00:24.765Z,19.80
2019-05-09T03:03:09.191Z,20.37
2019-05-09T03:05:42.407Z,19.93
2019-05-09T03:08:14.979Z,20.60
2019-05-09T03:10:48.993Z,22.93
2019-05-09T03:13:22.231Z,23.73
2019-05-09T03:15:58.574Z,21.83
2019-05-09T03:18:30.597Z,23.47
2019-05-09T03:21:19.153Z,21.47
2019-05-09T03:23:52.096Z,19.33
2019-05-09T03:26:32.497Z,22.67
2019-05-09T03:29:18.800Z,22.17
2019-05-09T03:31:50.660Z,22.60
2019-05-09T03:34:23.116Z,26.43
2019-05-09T03:36:57.951Z,20.20
2019-05-09T03:39:31.056Z,22.60
2019-05-09T03:42:03.824Z,25.97
2019-05-09T03:44:38.487Z,19.97
2019-05-09T03:47:12.151Z,20.83
2019-05-09T03:49:47.629Z,21.87
2019-05-09T03:52:20.475Z,19.97
2019-05-09T03:54:53.275Z,23.03
2019-05-09T03:57:33.317Z,19.23
2019-05-09T04:00:08.150Z,23.43
2019-05-09T04:02:40.780Z,23.00
2019-05-09T04:05:14.770Z,22.93
2019-05-09T04:07:47.980Z,20.70
2019-05-09T04:10:20.950Z,18.63
2019-05-09T04:12:56.594Z,25.30
2019-05-09T04:15:27.915Z,34.17
2019-05-09T04:18:00.470Z,33.53
2019-05-09T04:20:33.045Z,20.53
2019-05-09T04:23:07.834Z,27.90
2019-05-09T04:25:41.605Z,17.60
2019-05-09T04:28:14.580Z,22.07
2019-05-09T04:30:48.805Z,21.60
2019-05-09T04:33:21.614Z,23.43
2019-05-09T04:35:54.237Z,20.97
2019-05-09T04:38:27.885Z,21.53
2019-05-09T04:41:00.970Z,22.67
2019-05-09T04:43:36.984Z,21.27
2019-05-09T04:46:13.001Z,21.67
2019-05-09T04:48:43.800Z,18.27
2019-05-09T04:51:18.007Z,20.83
2019-05-09T04:53:50.615Z,25.17
2019-05-09T04:56:25.010Z,23.67
2019-05-09T04:58:58.449Z,29.00
2019-05-09T05:01:32.895Z,26.73
2019-05-09T05:04:07.731Z,29.20
2019-05-09T05:06:40.674Z,23.10
2019-05-09T05:09:13.504Z,25.57
2019-05-09T05:11:48.695Z,28.10
2019-05-09T05:14:22.140Z,30.33
2019-05-09T05:17:03.291Z,30.80
2019-05-09T05:19:31.483Z,30.73
2019-05-09T05:22:07.441Z,25.70
2019-05-09T05:24:42.831Z,19.40
2019-05-09T05:27:15.611Z,27.83
2019-05-09T05:29:48.550Z,25.10
2019-05-09T05:32:22.740Z,32.30
2019-05-09T05:34:58.346Z,24.67
2019-05-09T05:37:31.839Z,21.70
2019-05-09T05:40:07.623Z,18.97
2019-05-09T05:42:39.889Z,21.43
2019-05-09T05:45:13.130Z,22.37
2019-05-09T05:47:48.540Z,23.67
2019-05-09T05:50:21.505Z,32.13
2019-05-09T05:52:54.166Z,20.80
2019-05-09T05:55:27.457Z,28.97
2019-05-09T05:58:00.780Z,25.03
2019-05-09T06:00:33.523Z,23.23
2019-05-09T06:03:08.789Z,17.40
2019-05-09T06:05:41.135Z,22.80
2019-05-09T06:08:13.730Z,23.87
2019-05-09T06:10:48.297Z,35.03
2019-05-09T06:13:21.200Z,36.87
2019-05-09T06:15:53.975Z,27.20
2019-05-09T06:18:27.628Z,23.03
2019-05-09T06:21:00.595Z,23.23
2019-05-09T06:23:33.536Z,26.33
2019-05-09T06:26:10.014Z,19.90
2019-05-09T06:28:40.744Z,18.57
2019-05-09T06:31:13.597Z,31.80
2019-05-09T06:33:52.578Z,20.70
2019-05-09T06:36:20.670Z,18.30
2019-05-09T06:38:53.566Z,20.13
2019-05-09T06:41:28.616Z,17.90
2019-05-09T06:44:14.263Z,19.47
2019-05-09T06:46:41.525Z,20.13
2019-05-09T06:49:27.648Z,24.43
2019-05-09T06:51:50.366Z,26.13
2019-05-09T06:54:23.430Z,33.73
2019-05-09T06:56:58.291Z,21.97
2019-05-09T06:59:30.290Z,24.13
2019-05-09T07:02:04.473Z,23.73
2019-05-09T07:04:44.813Z,26.23
2019-05-09T07:07:38.470Z,21.20
2019-05-09T07:10:11.840Z,34.07
2019-05-09T07:12:44.503Z,20.60
2019-05-09T07:15:18.560Z,22.40
2019-05-09T07:17:51.155Z,19.37
2019-05-09T07:20:23.567Z,30.97
2019-05-09T07:22:58.356Z,21.80
2019-05-09T07:25:37.810Z,29.07
2019-05-09T07:28:11.127Z,21.80
2019-05-09T07:30:51.026Z,26.77
2019-05-09T07:33:28.025Z,28.70
2019-05-09T07:36:00.465Z,37.93
2019-05-09T07:38:33.785Z,25.10
2019-05-09T07:41:08.592Z,28.50
2019-05-09T07:43:41.485Z,23.30
2019-05-09T07:46:28.379Z,24.60
2019-05-09T07:49:01.728Z,33.30
2019-05-09T07:51:34.165Z,35.00
2019-05-09T07:54:20.997Z,31.20
2019-05-09T07:56:40.685Z,23.93
2019-05-09T07:59:13.020Z,37.20
2019-05-09T08:01:48.747Z,37.17
2019-05-09T08:04:21.285Z,27.33
2019-05-09T08:06:57.483Z,42.83
2019-05-09T08:09:28.905Z,34.13
2019-05-09T08:12:01.251Z,59.07
2019-05-09T08:14:34.026Z,23.73
2019-05-09T08:17:08.593Z,22.13
2019-05-09T08:19:41.114Z,37.13
2019-05-09T08:22:13.507Z,46.00
2019-05-09T08:24:48.196Z,38.90
2019-05-09T08:27:20.845Z,42.17
2019-05-09T08:29:53.386Z,40.23
2019-05-09T08:32:28.437Z,38.30
2019-05-09T08:35:00.025Z,27.90
2019-05-09T08:37:32.525Z,28.93
2019-05-09T08:40:07.964Z,28.70
2019-05-09T08:42:41.185Z,39.10
2019-05-09T08:45:27.354Z,33.17
2019-05-09T08:47:49.187Z,27.33
2019-05-09T08:50:28.155Z,30.97
2019-05-09T08:53:00.705Z,30.10
2019-05-09T08:55:33.167Z,29.33
2019-05-09T08:58:07.781Z,36.37
2019-05-09T09:00:39.625Z,25.07
2019-05-09T09:03:12.705Z,20.67
2019-05-09T09:05:45.186Z,26.50
2019-05-09T09:08:18.462Z,22.43
2019-05-09T09:10:51.185Z,24.17
2019-05-09T09:13:23.567Z,27.60
2019-05-09T09:16:12.067Z,28.97
2019-05-09T09:18:32.665Z,23.73
2019-05-09T09:21:05.085Z,23.70
2019-05-09T09:23:43.941Z,26.43
2019-05-09T09:26:11.706Z,26.30
2019-05-09T09:28:44.165Z,24.87
2019-05-09T09:31:17.975Z,25.50
2019-05-09T09:33:51.545Z,31.63
2019-05-09T09:36:23.825Z,31.07
2019-05-09T09:38:58.424Z,33.90
2019-05-09T09:41:30.705Z,24.47
2019-05-09T09:44:03.007Z,25.77
2019-05-09T09:46:37.416Z,26.17
2019-05-09T09:49:09.668Z,28.33
2019-05-09T09:51:42.145Z,29.77
2019-05-09T09:54:18.663Z,26.30
2019-05-09T09:56:50.565Z,23.77
2019-05-09T09:59:28.297Z,25.63
2019-05-09T10:02:02.627Z,33.67
2019-05-09T10:04:37.378Z,27.17
2019-05-09T10:07:09.185Z,22.87
2019-05-09T10:09:45.105Z,31.80
2019-05-09T10:12:18.425Z,26.43
2019-05-09T10:15:01.765Z,35.23
2019-05-09T10:17:52.165Z,45.73
2019-05-09T10:20:31.714Z,59.70
2019-05-09T10:23:16.289Z,38.50
2019-05-09T10:25:38.390Z,36.60
2019-05-09T10:28:10.830Z,30.47
2019-05-09T10:30:43.130Z,31.77
2019-05-09T10:33:17.571Z,35.23
2019-05-09T10:35:50.179Z,27.90
2019-05-09T10:38:22.550Z,23.70
2019-05-09T10:40:54.890Z,25.27
2019-05-09T10:43:38.462Z,24.60
2019-05-09T10:46:21.652Z,23.07
2019-05-09T10:48:58.641Z,23.07
2019-05-09T10:51:30.677Z,25.20
2019-05-09T10:54:03.101Z,32.30
2019-05-09T10:56:38.167Z,51.47
2019-05-09T10:59:09.630Z,27.70
2019-05-09T11:01:43.369Z,31.03
2019-05-09T11:04:18.014Z,28.37
2019-05-09T11:06:49.851Z,39.63
2019-05-09T11:09:22.378Z,37.87
2019-05-09T11:11:57.729Z,31.50
2019-05-09T11:14:36.555Z,28.57
2019-05-09T11:17:10.736Z,32.17
2019-05-09T11:19:37.211Z,31.97
2019-05-09T11:22:10.130Z,30.17
2019-05-09T11:24:46.656Z,30.03
2019-05-09T11:27:18.625Z,24.83
2019-05-09T11:29:50.893Z,22.33
2019-05-09T11:32:23.290Z,29.40
2019-05-09T11:34:57.618Z,25.30
2019-05-09T11:37:29.890Z,23.63
2019-05-09T11:40:04.216Z,21.17
2019-05-09T11:42:39.790Z,26.00
2019-05-09T11:45:12.459Z,20.87
2019-05-09T11:47:46.434Z,22.07
2019-05-09T11:50:22.997Z,21.17
2019-05-09T11:52:53.214Z,21.67
2019-05-09T11:55:34.753Z,22.87
2019-05-09T11:57:59.740Z,27.47
2019-05-09T12:00:34.710Z,27.53
2019-05-09T12:03:09.167Z,31.67
2019-05-09T12:05:41.310Z,19.23
2019-05-09T12:08:17.589Z,17.53
2019-05-09T12:10:49.555Z,16.37
2019-05-09T12:13:21.897Z,17.27
2019-05-09T12:15:54.314Z,17.43
2019-05-09T12:18:28.577Z,17.80
2019-05-09T12:21:00.770Z,21.13
2019-05-09T12:23:33.231Z,16.60
2019-05-09T12:26:08.026Z,19.80
2019-05-09T12:28:43.110Z,18.47
2019-05-09T12:31:17.808Z,18.70
2019-05-09T12:33:49.490Z,18.70
2019-05-09T12:36:22.010Z,22.60
2019-05-09T12:38:54.484Z,18.20
2019-05-09T12:41:30.995Z,17.13
2019-05-09T12:44:00.872Z,17.17
2019-05-09T12:46:33.630Z,16.20
2019-05-09T12:49:08.734Z,19.90
2019-05-09T12:51:40.030Z,17.43
2019-05-09T12:54:13.451Z,18.80
2019-05-09T12:56:48.357Z,13.87
2019-05-09T12:59:20.091Z,17.93
2019-05-09T13:01:52.571Z,18.07
2019-05-09T13:04:25.151Z,16.00
2019-05-09T13:06:58.717Z,15.00
2019-05-09T13:09:32.350Z,16.13
2019-05-09T13:12:04.872Z,19.23
2019-05-09T13:14:38.092Z,17.83
2019-05-09T13:17:22.536Z,20.00
2019-05-09T13:19:54.990Z,16.97
2019-05-09T13:22:28.350Z,21.63
2019-05-09T13:25:03.008Z,19.50
2019-05-09T13:27:35.315Z,18.67
2019-05-09T13:30:09.610Z,19.07
2019-05-09T13:32:42.031Z,22.03
2019-05-09T13:35:14.551Z,23.70
2019-05-09T13:37:49.127Z,25.77
2019-05-09T13:40:21.130Z,22.57
2019-05-09T13:42:53.410Z,16.10
2019-05-09T13:45:28.453Z,19.27
2019-05-09T13:48:00.132Z,16.00
2019-05-09T13:50:32.730Z,20.60
2019-05-09T13:53:05.011Z,17.03
2019-05-09T13:55:38.118Z,17.33
2019-05-09T13:58:10.861Z,22.03
2019-05-09T14:00:55.793Z,17.20
2019-05-09T14:03:18.225Z,19.17
2019-05-09T14:05:51.373Z,17.87
2019-05-09T14:08:24.585Z,17.63
2019-05-09T14:10:58.401Z,17.03
2019-05-09T14:13:31.016Z,19.20
2019-05-09T14:16:19.026Z,17.73
2019-05-09T14:18:38.613Z,17.70
2019-05-09T14:21:11.462Z,17.53
2019-05-09T14:23:51.004Z,18.43
2019-05-09T14:26:19.285Z,15.77
2019-05-09T14:28:52.146Z,17.33
2019-05-09T14:31:28.700Z,17.50
2019-05-09T14:33:58.815Z,26.27
2019-05-09T14:36:31.275Z,19.37
2019-05-09T14:39:05.396Z,21.40
2019-05-09T14:41:39.143Z,17.33
2019-05-09T14:44:12.108Z,22.20
2019-05-09T14:46:44.565Z,23.47
2019-05-09T14:49:17.665Z,17.73
2019-05-09T14:51:50.450Z,18.57
2019-05-09T14:54:22.926Z,22.77
2019-05-09T14:56:55.205Z,18.90
2019-05-09T14:59:28.641Z,19.57
2019-05-09T15:02:01.506Z,18.97
2019-05-09T15:04:34.025Z,21.03
2019-05-09T15:07:07.965Z,22.17
2019-05-09T15:09:40.565Z,38.43
2019-05-09T15:12:33.500Z,36.27
2019-05-09T15:15:09.525Z,25.73
2019-05-09T15:17:42.220Z,57.07
2019-05-09T15:20:15.045Z,26.70
2019-05-09T15:22:48.033Z,31.07
2019-05-09T15:25:20.859Z,26.20
2019-05-09T15:27:53.826Z,20.87
2019-05-09T15:30:28.746Z,20.97
2019-05-09T15:33:01.415Z,19.93
2019-05-09T15:35:34.175Z,18.07
2019-05-09T15:38:08.582Z,17.97
2019-05-09T15:40:40.855Z,27.10
2019-05-09T15:43:13.435Z,26.07
2019-05-09T15:45:48.556Z,32.40
2019-05-09T15:48:21.270Z,46.80
2019-05-09T15:50:54.005Z,42.40
2019-05-09T15:53:27.821Z,33.00
2019-05-09T15:56:00.611Z,26.60
2019-05-09T15:58:33.025Z,25.50
2019-05-09T16:01:08.112Z,24.00
2019-05-09T16:03:40.296Z,21.97
2019-05-09T16:06:12.903Z,24.70
2019-05-09T16:08:47.010Z,29.23
2019-05-09T16:11:20.156Z,34.73
2019-05-09T16:13:52.510Z,28.77
2019-05-09T16:16:28.452Z,26.17
2019-05-09T16:18:59.686Z,63.13
2019-05-09T16:21:32.655Z,68.30
2019-05-09T16:24:07.880Z,41.83
2019-05-09T16:26:39.488Z,36.33
2019-05-09T16:29:12.321Z,32.13
2019-05-09T16:31:47.762Z,30.50
2019-05-09T16:34:19.841Z,40.43
2019-05-09T16:36:52.475Z,29.83
2019-05-09T16:39:27.802Z,37.50
2019-05-09T16:41:59.992Z,28.70
2019-05-09T16:44:32.593Z,26.43
2019-05-09T16:47:05.145Z,31.77
2019-05-09T16:49:38.712Z,39.97
2019-05-09T16:52:11.870Z,42.20
2019-05-09T16:54:49.788Z,42.17
2019-05-09T16:57:20.922Z,37.63
2019-05-09T16:59:54.046Z,32.57
2019-05-09T17:02:28.716Z,33.50
2019-05-09T17:05:01.265Z,31.13
2019-05-09T17:07:33.763Z,25.47
2019-05-09T17:10:08.578Z,28.13
2019-05-09T17:12:41.127Z,33.40
2019-05-09T17:15:18.065Z,33.30
2019-05-09T17:17:50.855Z,39.53
2019-05-09T17:20:27.670Z,31.70
2019-05-09T17:23:17.515Z,30.47
2019-05-09T17:25:50.131Z,27.93
2019-05-09T17:28:23.035Z,33.70
2019-05-09T17:30:57.812Z,34.50
2019-05-09T17:33:30.105Z,31.13
2019-05-09T17:36:02.899Z,34.20
2019-05-09T17:38:38.212Z,34.30
2019-05-09T17:41:10.197Z,38.63
2019-05-09T17:43:42.695Z,38.33
2019-05-09T17:46:15.355Z,39.30
2019-05-09T17:48:48.090Z,41.97
2019-05-09T17:51:32.640Z,39.57
2019-05-09T17:53:54.864Z,67.53
2019-05-09T17:56:27.600Z,70.17
2019-05-09T17:59:00.145Z,43.43
2019-05-09T18:01:33.224Z,51.37
2019-05-09T18:04:09.207Z,70.60
2019-05-09T18:06:41.710Z,105.77
2019-05-09T18:09:14.445Z,155.57
2019-05-09T18:11:48.303Z,95.43
2019-05-09T18:14:21.412Z,107.37
2019-05-09T18:16:54.325Z,95.13
2019-05-09T18:19:29.313Z,82.27
2019-05-09T18:22:01.960Z,81.70
2019-05-09T18:24:34.569Z,174.77
2019-05-09T18:27:07.810Z,153.27
2019-05-09T18:29:40.752Z,359.97
2019-05-09T18:32:34.681Z,227.87
2019-05-09T18:35:15.705Z,211.13
2019-05-09T18:37:48.505Z,195.97
2019-05-09T18:40:22.211Z,132.17
2019-05-09T18:42:55.185Z,108.03
2019-05-09T18:45:29.160Z,111.53
2019-05-09T18:48:02.056Z,129.53
2019-05-09T18:50:34.610Z,107.47
2019-05-09T18:53:07.520Z,98.20
2019-05-09T18:55:40.605Z,88.27
2019-05-09T18:58:13.125Z,98.80
2019-05-09T19:00:46.022Z,128.07
2019-05-09T19:03:18.622Z,111.97
2019-05-09T19:05:51.505Z,102.60
2019-05-09T19:08:23.915Z,108.73
2019-05-09T19:10:56.697Z,103.70
2019-05-09T19:13:29.445Z,94.63
2019-05-09T19:16:06.912Z,87.27
2019-05-09T19:18:59.531Z,81.07
2019-05-09T19:21:34.430Z,72.17
2019-05-09T19:24:07.105Z,78.90
2019-05-09T19:26:39.822Z,74.67
2019-05-09T19:29:12.612Z,69.20
2019-05-09T19:31:45.315Z,67.00
2019-05-09T19:34:18.498Z,89.40
2019-05-09T19:36:51.545Z,109.27
2019-05-09T19:39:24.705Z,76.17
2019-05-09T19:41:57.643Z,67.77
2019-05-09T19:44:30.315Z,70.60
2019-05-09T19:47:03.058Z,80.20
2019-05-09T19:49:36.211Z,68.37
2019-05-09T19:52:09.156Z,67.30
2019-05-09T19:54:41.785Z,54.83
2019-05-09T19:57:14.760Z,61.20
2019-05-09T19:59:47.615Z,55.60
2019-05-09T20:02:20.841Z,96.50
2019-05-09T20:04:55.542Z,158.27
2019-05-09T20:07:28.145Z,193.83
2019-05-09T20:10:09.542Z,213.17
2019-05-09T20:12:46.885Z,242.00
2019-05-09T20:15:21.436Z,212.83
2019-05-09T20:17:54.468Z,124.93
2019-05-09T20:20:27.355Z,166.37
2019-05-09T20:23:00.259Z,168.57
2019-05-09T20:25:33.025Z,153.40
2019-05-09T20:28:06.710Z,155.90
2019-05-09T20:30:39.579Z,167.03
2019-05-09T20:33:13.474Z,197.20
2019-05-09T20:35:46.296Z,117.30
2019-05-09T20:38:19.280Z,152.27
2019-05-09T20:40:53.465Z,99.20
2019-05-09T20:43:26.301Z,93.37
2019-05-09T20:45:59.245Z,98.40
2019-05-09T20:48:32.391Z,110.47
2019-05-09T20:51:05.615Z,105.73
2019-05-09T20:53:38.680Z,107.07
2019-05-09T20:56:11.836Z,121.47
2019-05-09T20:58:46.270Z,117.77
2019-05-09T21:01:18.944Z,91.20
2019-05-09T21:04:00.122Z,123.43
2019-05-09T21:06:27.627Z,222.97
2019-05-09T21:09:00.697Z,149.30
2019-05-09T21:11:35.460Z,136.33
2019-05-09T21:14:09.625Z,132.57
2019-05-09T21:16:42.376Z,102.20
2019-05-09T21:19:15.211Z,112.70
2019-05-09T21:21:48.055Z,108.53
2019-05-09T21:24:20.927Z,120.60
2019-05-09T21:26:53.851Z,125.50
2019-05-09T21:29:26.762Z,156.60
2019-05-09T21:31:59.765Z,166.77
2019-05-09T21:34:33.573Z,162.33
2019-05-09T21:37:06.401Z,168.07
2019-05-09T21:39:39.215Z,147.73
2019-05-09T21:42:11.826Z,102.27
2019-05-09T21:44:44.915Z,90.47
2019-05-09T21:47:17.891Z,89.07
2019-05-09T21:49:50.706Z,94.73
2019-05-09T21:52:23.735Z,98.57
2019-05-09T21:54:56.545Z,98.13
2019-05-09T21:57:29.247Z,138.10
2019-05-09T22:00:01.868Z,149.97
2019-05-09T22:02:47.296Z,98.60
2019-05-09T22:05:20.330Z,93.67
2019-05-09T22:07:53.301Z,99.93
2019-05-09T22:10:26.035Z,81.27
2019-05-09T22:12:58.890Z,75.43
2019-05-09T22:15:31.491Z,75.30
2019-05-09T22:18:04.157Z,85.17
2019-05-09T22:20:37.135Z,103.63
2019-05-09T22:23:09.885Z,102.73
2019-05-09T22:25:42.591Z,79.03
2019-05-09T22:28:15.165Z,56.30
2019-05-09T22:30:47.919Z,69.43
2019-05-09T22:33:20.670Z,70.80
2019-05-09T22:35:53.810Z,70.10
2019-05-09T22:38:26.465Z,70.67
2019-05-09T22:40:59.616Z,55.17
2019-05-09T22:43:32.705Z,49.47
2019-05-09T22:46:05.610Z,71.33
2019-05-09T22:48:38.590Z,58.70
2019-05-09T22:51:11.815Z,58.33
2019-05-09T22:53:44.577Z,61.87
2019-05-09T22:56:17.591Z,60.23
2019-05-09T22:58:50.311Z,60.63
2019-05-09T23:01:23.429Z,59.83
2019-05-09T23:03:57.090Z,68.23
2019-05-09T23:06:29.800Z,54.23
2019-05-09T23:09:02.744Z,50.97
2019-05-09T23:11:35.575Z,59.20
2019-05-09T23:14:08.780Z,48.73
2019-05-09T23:16:42.099Z,53.73
2019-05-09T23:19:14.885Z,46.00
2019-05-09T23:21:47.590Z,41.27
2019-05-09T23:24:29.099Z,45.00
2019-05-09T23:27:01.981Z,36.93
2019-05-09T23:29:34.635Z,44.03
2019-05-09T23:32:19.085Z,60.57
2019-05-09T23:34:51.721Z,51.17
2019-05-09T23:37:24.776Z,62.70
2019-05-09T23:39:58.210Z,44.03
2019-05-09T23:42:31.129Z,48.93
2019-05-09T23:45:03.716Z,45.97
2019-05-09T23:47:36.855Z,50.33
2019-05-09T23:50:09.825Z,54.97
2019-05-09T23:52:42.760Z,57.43
2019-05-09T23:55:33.360Z,46.40
2019-05-09T23:58:23.965Z,54.57
